sensor_id;sensor_type;location;lat;lon;timestamp;temperature;humidity
41722;DHT22;27407;24.142;-110.310;2024-03-22T00:02:14;33.50;63.30
41722;DHT22;27407;24.142;-110.310;2024-03-22T00:04:41;33.70;63.00
41722;DHT22;27407;24.142;-110.310;2024-03-22T00:07:07;34.00;60.80
41722;DHT22;27407;24.142;-110.310;2024-03-22T00:09:34;33.60;62.00
41722;DHT22;27407;24.142;-110.310;2024-03-22T00:12:01;33.90;60.80
41722;DHT22;27407;24.142;-110.310;2024-03-22T00:14:27;33.80;61.00
41722;DHT22;27407;24.142;-110.310;2024-03-22T00:16:54;33.90;61.50
41722;DHT22;27407;24.142;-110.310;2024-03-22T00:19:21;33.70;62.30
41722;DHT22;27407;24.142;-110.310;2024-03-22T00:21:47;33.30;62.50
41722;DHT22;27407;24.142;-110.310;2024-03-22T00:24:14;32.90;63.80
41722;DHT22;27407;24.142;-110.310;2024-03-22T00:26:40;33.00;65.20
41722;DHT22;27407;24.142;-110.310;2024-03-22T00:29:07;33.00;66.30
41722;DHT22;27407;24.142;-110.310;2024-03-22T00:31:34;33.70;63.90
41722;DHT22;27407;24.142;-110.310;2024-03-22T00:34:00;33.50;64.90
41722;DHT22;27407;24.142;-110.310;2024-03-22T00:36:27;33.30;64.50
41722;DHT22;27407;24.142;-110.310;2024-03-22T00:38:53;33.30;64.70
41722;DHT22;27407;24.142;-110.310;2024-03-22T00:41:20;33.10;65.10
41722;DHT22;27407;24.142;-110.310;2024-03-22T00:43:47;33.00;65.40
41722;DHT22;27407;24.142;-110.310;2024-03-22T00:46:13;33.00;65.30
41722;DHT22;27407;24.142;-110.310;2024-03-22T00:48:40;32.90;65.10
41722;DHT22;27407;24.142;-110.310;2024-03-22T00:51:06;32.80;65.20
41722;DHT22;27407;24.142;-110.310;2024-03-22T00:53:33;32.50;65.20
41722;DHT22;27407;24.142;-110.310;2024-03-22T00:55:59;32.70;64.50
41722;DHT22;27407;24.142;-110.310;2024-03-22T00:58:27;32.60;65.00
41722;DHT22;27407;24.142;-110.310;2024-03-22T01:00:54;32.50;65.30
41722;DHT22;27407;24.142;-110.310;2024-03-22T01:03:21;32.40;65.40
41722;DHT22;27407;24.142;-110.310;2024-03-22T01:05:48;32.10;64.90
41722;DHT22;27407;24.142;-110.310;2024-03-22T01:08:15;31.60;65.90
41722;DHT22;27407;24.142;-110.310;2024-03-22T01:10:41;31.20;67.50
41722;DHT22;27407;24.142;-110.310;2024-03-22T01:13:08;30.90;68.20
41722;DHT22;27407;24.142;-110.310;2024-03-22T01:15:34;30.40;68.80
41722;DHT22;27407;24.142;-110.310;2024-03-22T01:18:01;30.20;69.20
41722;DHT22;27407;24.142;-110.310;2024-03-22T01:20:28;30.00;70.10
41722;DHT22;27407;24.142;-110.310;2024-03-22T01:22:55;29.70;71.10
41722;DHT22;27407;24.142;-110.310;2024-03-22T01:25:21;29.40;71.90
41722;DHT22;27407;24.142;-110.310;2024-03-22T01:27:48;28.90;73.20
41722;DHT22;27407;24.142;-110.310;2024-03-22T01:30:15;28.60;74.50
41722;DHT22;27407;24.142;-110.310;2024-03-22T01:32:41;28.20;75.40
41722;DHT22;27407;24.142;-110.310;2024-03-22T01:35:08;27.90;76.60
41722;DHT22;27407;24.142;-110.310;2024-03-22T01:37:35;27.60;77.60
41722;DHT22;27407;24.142;-110.310;2024-03-22T01:40:02;27.30;78.80
41722;DHT22;27407;24.142;-110.310;2024-03-22T01:42:29;27.10;80.00
41722;DHT22;27407;24.142;-110.310;2024-03-22T01:44:55;27.00;80.90
41722;DHT22;27407;24.142;-110.310;2024-03-22T01:47:22;26.80;82.20
41722;DHT22;27407;24.142;-110.310;2024-03-22T01:49:52;26.70;83.60
41722;DHT22;27407;24.142;-110.310;2024-03-22T01:52:20;26.60;85.20
41722;DHT22;27407;24.142;-110.310;2024-03-22T01:54:46;26.40;86.70
41722;DHT22;27407;24.142;-110.310;2024-03-22T01:57:13;26.40;87.80
41722;DHT22;27407;24.142;-110.310;2024-03-22T01:59:40;26.30;88.90
41722;DHT22;27407;24.142;-110.310;2024-03-22T02:02:06;26.20;90.00
41722;DHT22;27407;24.142;-110.310;2024-03-22T02:04:33;26.00;90.70
41722;DHT22;27407;24.142;-110.310;2024-03-22T02:06:59;25.90;91.30
41722;DHT22;27407;24.142;-110.310;2024-03-22T02:09:26;25.80;91.80
41722;DHT22;27407;24.142;-110.310;2024-03-22T02:11:53;25.70;92.30
41722;DHT22;27407;24.142;-110.310;2024-03-22T02:14:20;25.70;92.80
41722;DHT22;27407;24.142;-110.310;2024-03-22T02:16:46;25.70;93.10
41722;DHT22;27407;24.142;-110.310;2024-03-22T02:19:13;25.50;93.40
41722;DHT22;27407;24.142;-110.310;2024-03-22T02:21:40;25.50;93.50
41722;DHT22;27407;24.142;-110.310;2024-03-22T02:24:07;25.30;93.50
41722;DHT22;27407;24.142;-110.310;2024-03-22T02:26:33;25.20;93.80
41722;DHT22;27407;24.142;-110.310;2024-03-22T02:29:00;25.10;93.60
41722;DHT22;27407;24.142;-110.310;2024-03-22T02:31:26;25.20;93.40
41722;DHT22;27407;24.142;-110.310;2024-03-22T02:33:53;25.10;92.90
41722;DHT22;27407;24.142;-110.310;2024-03-22T02:36:20;25.10;92.80
41722;DHT22;27407;24.142;-110.310;2024-03-22T02:38:46;25.10;92.80
41722;DHT22;27407;24.142;-110.310;2024-03-22T02:41:13;25.00;92.60
41722;DHT22;27407;24.142;-110.310;2024-03-22T02:43:40;25.00;92.40
41722;DHT22;27407;24.142;-110.310;2024-03-22T02:46:06;25.00;92.10
41722;DHT22;27407;24.142;-110.310;2024-03-22T02:48:33;24.90;92.10
41722;DHT22;27407;24.142;-110.310;2024-03-22T02:51:00;25.00;92.20
41722;DHT22;27407;24.142;-110.310;2024-03-22T02:53:26;24.90;92.30
41722;DHT22;27407;24.142;-110.310;2024-03-22T02:55:53;24.80;92.50
41722;DHT22;27407;24.142;-110.310;2024-03-22T02:58:20;24.80;92.90
41722;DHT22;27407;24.142;-110.310;2024-03-22T03:00:48;24.70;93.00
41722;DHT22;27407;24.142;-110.310;2024-03-22T03:03:15;24.70;93.10
41722;DHT22;27407;24.142;-110.310;2024-03-22T03:05:42;24.50;93.50
41722;DHT22;27407;24.142;-110.310;2024-03-22T03:08:10;24.50;93.60
41722;DHT22;27407;24.142;-110.310;2024-03-22T03:10:36;24.50;93.70
41722;DHT22;27407;24.142;-110.310;2024-03-22T03:13:03;24.40;93.60
41722;DHT22;27407;24.142;-110.310;2024-03-22T03:15:30;24.50;93.70
41722;DHT22;27407;24.142;-110.310;2024-03-22T03:17:56;24.30;94.00
41722;DHT22;27407;24.142;-110.310;2024-03-22T03:20:25;24.30;94.30
41722;DHT22;27407;24.142;-110.310;2024-03-22T03:22:51;24.20;94.30
41722;DHT22;27407;24.142;-110.310;2024-03-22T03:25:18;24.20;94.50
41722;DHT22;27407;24.142;-110.310;2024-03-22T03:27:45;24.10;94.80
41722;DHT22;27407;24.142;-110.310;2024-03-22T03:30:11;24.20;94.60
41722;DHT22;27407;24.142;-110.310;2024-03-22T03:32:38;24.20;94.80
41722;DHT22;27407;24.142;-110.310;2024-03-22T03:35:05;24.10;94.90
41722;DHT22;27407;24.142;-110.310;2024-03-22T03:37:32;24.10;94.90
41722;DHT22;27407;24.142;-110.310;2024-03-22T03:39:58;24.10;94.90
41722;DHT22;27407;24.142;-110.310;2024-03-22T03:42:25;24.10;95.00
41722;DHT22;27407;24.142;-110.310;2024-03-22T03:44:51;24.00;95.10
41722;DHT22;27407;24.142;-110.310;2024-03-22T03:47:18;23.90;95.30
41722;DHT22;27407;24.142;-110.310;2024-03-22T03:49:48;23.90;95.30
41722;DHT22;27407;24.142;-110.310;2024-03-22T03:52:14;24.00;95.50
41722;DHT22;27407;24.142;-110.310;2024-03-22T03:54:41;23.90;95.60
41722;DHT22;27407;24.142;-110.310;2024-03-22T03:57:07;23.90;95.60
41722;DHT22;27407;24.142;-110.310;2024-03-22T03:59:34;23.80;95.40
41722;DHT22;27407;24.142;-110.310;2024-03-22T04:02:01;23.80;95.40
41722;DHT22;27407;24.142;-110.310;2024-03-22T04:04:27;23.80;95.40
41722;DHT22;27407;24.142;-110.310;2024-03-22T04:06:54;23.80;95.80
41722;DHT22;27407;24.142;-110.310;2024-03-22T04:09:20;23.80;95.70
41722;DHT22;27407;24.142;-110.310;2024-03-22T04:11:47;23.60;96.20
41722;DHT22;27407;24.142;-110.310;2024-03-22T04:14:14;23.50;96.50
41722;DHT22;27407;24.142;-110.310;2024-03-22T04:16:40;23.50;96.40
41722;DHT22;27407;24.142;-110.310;2024-03-22T04:19:07;23.40;96.50
41722;DHT22;27407;24.142;-110.310;2024-03-22T04:21:35;23.30;96.70
41722;DHT22;27407;24.142;-110.310;2024-03-22T04:24:02;23.30;96.80
41722;DHT22;27407;24.142;-110.310;2024-03-22T04:26:28;23.30;96.50
41722;DHT22;27407;24.142;-110.310;2024-03-22T04:28:55;23.30;96.60
41722;DHT22;27407;24.142;-110.310;2024-03-22T04:31:21;23.30;97.30
41722;DHT22;27407;24.142;-110.310;2024-03-22T04:33:48;23.20;97.70
41722;DHT22;27407;24.142;-110.310;2024-03-22T04:36:15;23.20;98.40
41722;DHT22;27407;24.142;-110.310;2024-03-22T04:38:42;23.00;98.80
41722;DHT22;27407;24.142;-110.310;2024-03-22T04:41:08;22.90;99.90
41722;DHT22;27407;24.142;-110.310;2024-03-22T04:43:35;22.90;99.90
41722;DHT22;27407;24.142;-110.310;2024-03-22T04:46:02;22.90;99.90
41722;DHT22;27407;24.142;-110.310;2024-03-22T04:48:28;22.90;99.90
41722;DHT22;27407;24.142;-110.310;2024-03-22T04:50:55;22.80;99.90
41722;DHT22;27407;24.142;-110.310;2024-03-22T04:53:22;22.70;99.90
41722;DHT22;27407;24.142;-110.310;2024-03-22T04:55:49;22.70;99.90
41722;DHT22;27407;24.142;-110.310;2024-03-22T04:58:17;22.60;99.90
41722;DHT22;27407;24.142;-110.310;2024-03-22T05:00:46;22.60;99.90
41722;DHT22;27407;24.142;-110.310;2024-03-22T05:03:13;22.60;99.90
41722;DHT22;27407;24.142;-110.310;2024-03-22T05:05:41;22.50;99.90
41722;DHT22;27407;24.142;-110.310;2024-03-22T05:08:08;22.40;99.90
41722;DHT22;27407;24.142;-110.310;2024-03-22T05:10:35;22.40;99.90
41722;DHT22;27407;24.142;-110.310;2024-03-22T05:13:02;22.40;99.90
41722;DHT22;27407;24.142;-110.310;2024-03-22T05:15:29;22.30;99.90
41722;DHT22;27407;24.142;-110.310;2024-03-22T05:17:57;22.30;99.90
41722;DHT22;27407;24.142;-110.310;2024-03-22T05:20:24;22.10;99.90
41722;DHT22;27407;24.142;-110.310;2024-03-22T05:22:52;22.00;99.90
41722;DHT22;27407;24.142;-110.310;2024-03-22T05:25:18;21.60;99.90
41722;DHT22;27407;24.142;-110.310;2024-03-22T05:27:45;21.40;99.90
41722;DHT22;27407;24.142;-110.310;2024-03-22T05:30:13;21.30;99.90
41722;DHT22;27407;24.142;-110.310;2024-03-22T05:32:40;21.30;99.90
41722;DHT22;27407;24.142;-110.310;2024-03-22T05:35:07;21.40;99.90
41722;DHT22;27407;24.142;-110.310;2024-03-22T05:37:34;21.40;99.90
41722;DHT22;27407;24.142;-110.310;2024-03-22T05:40:02;21.30;99.90
41722;DHT22;27407;24.142;-110.310;2024-03-22T05:42:30;21.30;99.90
41722;DHT22;27407;24.142;-110.310;2024-03-22T05:44:57;21.40;99.90
41722;DHT22;27407;24.142;-110.310;2024-03-22T05:47:24;21.50;99.90
41722;DHT22;27407;24.142;-110.310;2024-03-22T05:49:50;21.50;99.90
41722;DHT22;27407;24.142;-110.310;2024-03-22T05:52:18;21.50;99.90
41722;DHT22;27407;24.142;-110.310;2024-03-22T05:54:45;21.40;99.90
41722;DHT22;27407;24.142;-110.310;2024-03-22T05:57:12;21.30;99.90
41722;DHT22;27407;24.142;-110.310;2024-03-22T05:59:38;21.30;99.90
41722;DHT22;27407;24.142;-110.310;2024-03-22T06:02:05;21.30;99.90
41722;DHT22;27407;24.142;-110.310;2024-03-22T06:04:32;21.20;99.90
41722;DHT22;27407;24.142;-110.310;2024-03-22T06:06:59;21.10;99.90
41722;DHT22;27407;24.142;-110.310;2024-03-22T06:09:27;21.10;99.90
41722;DHT22;27407;24.142;-110.310;2024-03-22T06:12:13;21.00;99.90
41722;DHT22;27407;24.142;-110.310;2024-03-22T06:14:42;21.00;99.90
41722;DHT22;27407;24.142;-110.310;2024-03-22T06:17:09;20.90;99.90
41722;DHT22;27407;24.142;-110.310;2024-03-22T06:19:36;20.80;99.90
41722;DHT22;27407;24.142;-110.310;2024-03-22T06:22:03;20.70;99.90
41722;DHT22;27407;24.142;-110.310;2024-03-22T06:24:30;20.50;99.90
41722;DHT22;27407;24.142;-110.310;2024-03-22T06:26:57;20.40;99.90
41722;DHT22;27407;24.142;-110.310;2024-03-22T06:29:23;20.40;99.90
41722;DHT22;27407;24.142;-110.310;2024-03-22T06:31:50;20.40;99.90
41722;DHT22;27407;24.142;-110.310;2024-03-22T06:34:18;20.20;99.90
41722;DHT22;27407;24.142;-110.310;2024-03-22T06:36:45;19.90;99.90
41722;DHT22;27407;24.142;-110.310;2024-03-22T06:39:13;20.10;99.90
41722;DHT22;27407;24.142;-110.310;2024-03-22T06:41:40;20.00;99.90
41722;DHT22;27407;24.142;-110.310;2024-03-22T06:44:07;20.10;99.90
41722;DHT22;27407;24.142;-110.310;2024-03-22T06:46:35;20.00;99.90
41722;DHT22;27407;24.142;-110.310;2024-03-22T06:49:03;19.90;99.90
41722;DHT22;27407;24.142;-110.310;2024-03-22T06:51:30;19.80;99.90
41722;DHT22;27407;24.142;-110.310;2024-03-22T06:53:56;19.80;99.90
41722;DHT22;27407;24.142;-110.310;2024-03-22T06:56:23;19.80;99.90
41722;DHT22;27407;24.142;-110.310;2024-03-22T06:58:49;19.90;99.90
41722;DHT22;27407;24.142;-110.310;2024-03-22T07:01:16;19.90;99.90
41722;DHT22;27407;24.142;-110.310;2024-03-22T07:03:43;19.90;99.90
41722;DHT22;27407;24.142;-110.310;2024-03-22T07:06:11;19.90;99.90
41722;DHT22;27407;24.142;-110.310;2024-03-22T07:08:38;19.90;99.90
41722;DHT22;27407;24.142;-110.310;2024-03-22T07:11:07;19.90;99.90
41722;DHT22;27407;24.142;-110.310;2024-03-22T07:13:35;19.90;99.90
41722;DHT22;27407;24.142;-110.310;2024-03-22T07:16:02;19.80;99.90
41722;DHT22;27407;24.142;-110.310;2024-03-22T07:18:29;19.80;99.90
41722;DHT22;27407;24.142;-110.310;2024-03-22T07:20:56;19.70;99.90
41722;DHT22;27407;24.142;-110.310;2024-03-22T07:23:24;19.50;99.90
41722;DHT22;27407;24.142;-110.310;2024-03-22T07:25:50;19.40;99.90
41722;DHT22;27407;24.142;-110.310;2024-03-22T07:28:17;19.40;99.90
41722;DHT22;27407;24.142;-110.310;2024-03-22T07:30:43;19.40;99.90
41722;DHT22;27407;24.142;-110.310;2024-03-22T07:33:13;19.40;99.90
41722;DHT22;27407;24.142;-110.310;2024-03-22T07:35:42;19.40;99.90
41722;DHT22;27407;24.142;-110.310;2024-03-22T07:38:10;19.40;99.90
41722;DHT22;27407;24.142;-110.310;2024-03-22T07:40:36;19.40;99.90
41722;DHT22;27407;24.142;-110.310;2024-03-22T07:43:03;19.30;99.90
41722;DHT22;27407;24.142;-110.310;2024-03-22T07:45:35;19.30;99.90
41722;DHT22;27407;24.142;-110.310;2024-03-22T07:48:02;19.20;99.90
41722;DHT22;27407;24.142;-110.310;2024-03-22T07:50:28;19.20;99.90
41722;DHT22;27407;24.142;-110.310;2024-03-22T07:52:55;19.20;99.90
41722;DHT22;27407;24.142;-110.310;2024-03-22T07:55:23;19.10;99.90
41722;DHT22;27407;24.142;-110.310;2024-03-22T07:57:50;19.10;99.90
41722;DHT22;27407;24.142;-110.310;2024-03-22T08:00:17;19.00;99.90
41722;DHT22;27407;24.142;-110.310;2024-03-22T08:02:43;19.00;99.90
41722;DHT22;27407;24.142;-110.310;2024-03-22T08:05:10;19.00;99.90
41722;DHT22;27407;24.142;-110.310;2024-03-22T08:07:36;18.90;99.90
41722;DHT22;27407;24.142;-110.310;2024-03-22T08:10:03;19.00;99.90
41722;DHT22;27407;24.142;-110.310;2024-03-22T08:12:30;19.00;99.90
41722;DHT22;27407;24.142;-110.310;2024-03-22T08:14:57;19.00;99.90
41722;DHT22;27407;24.142;-110.310;2024-03-22T08:17:23;18.90;99.90
41722;DHT22;27407;24.142;-110.310;2024-03-22T08:19:50;18.90;99.90
41722;DHT22;27407;24.142;-110.310;2024-03-22T08:22:17;18.80;99.90
41722;DHT22;27407;24.142;-110.310;2024-03-22T08:24:43;18.70;99.90
41722;DHT22;27407;24.142;-110.310;2024-03-22T08:27:10;18.80;99.90
41722;DHT22;27407;24.142;-110.310;2024-03-22T08:29:37;18.70;99.90
41722;DHT22;27407;24.142;-110.310;2024-03-22T08:32:04;18.80;99.90
41722;DHT22;27407;24.142;-110.310;2024-03-22T08:34:31;18.70;99.90
41722;DHT22;27407;24.142;-110.310;2024-03-22T08:37:01;18.70;99.90
41722;DHT22;27407;24.142;-110.310;2024-03-22T08:39:30;18.80;99.90
41722;DHT22;27407;24.142;-110.310;2024-03-22T08:41:57;18.70;99.90
41722;DHT22;27407;24.142;-110.310;2024-03-22T08:44:24;18.70;99.90
41722;DHT22;27407;24.142;-110.310;2024-03-22T08:46:50;18.70;99.90
41722;DHT22;27407;24.142;-110.310;2024-03-22T08:49:18;18.60;99.90
41722;DHT22;27407;24.142;-110.310;2024-03-22T08:51:45;18.60;99.90
41722;DHT22;27407;24.142;-110.310;2024-03-22T08:54:12;18.60;99.90
41722;DHT22;27407;24.142;-110.310;2024-03-22T08:56:39;18.60;99.90
41722;DHT22;27407;24.142;-110.310;2024-03-22T08:59:05;18.60;99.90
41722;DHT22;27407;24.142;-110.310;2024-03-22T09:01:32;18.50;99.90
41722;DHT22;27407;24.142;-110.310;2024-03-22T09:03:58;18.50;99.90
41722;DHT22;27407;24.142;-110.310;2024-03-22T09:06:25;18.50;99.90
41722;DHT22;27407;24.142;-110.310;2024-03-22T09:08:52;18.50;99.90
41722;DHT22;27407;24.142;-110.310;2024-03-22T09:11:21;18.40;99.90
41722;DHT22;27407;24.142;-110.310;2024-03-22T09:13:47;18.40;99.90
41722;DHT22;27407;24.142;-110.310;2024-03-22T09:16:15;18.40;99.90
41722;DHT22;27407;24.142;-110.310;2024-03-22T09:18:42;18.40;99.90
41722;DHT22;27407;24.142;-110.310;2024-03-22T09:21:09;18.40;99.90
41722;DHT22;27407;24.142;-110.310;2024-03-22T09:23:36;18.40;99.90
41722;DHT22;27407;24.142;-110.310;2024-03-22T09:26:03;18.30;99.90
41722;DHT22;27407;24.142;-110.310;2024-03-22T09:28:30;18.20;99.90
41722;DHT22;27407;24.142;-110.310;2024-03-22T09:30:57;18.20;99.90
41722;DHT22;27407;24.142;-110.310;2024-03-22T09:33:24;18.10;99.90
41722;DHT22;27407;24.142;-110.310;2024-03-22T09:35:50;18.00;99.90
41722;DHT22;27407;24.142;-110.310;2024-03-22T09:38:17;17.90;99.90
41722;DHT22;27407;24.142;-110.310;2024-03-22T09:40:44;17.80;99.90
41722;DHT22;27407;24.142;-110.310;2024-03-22T09:43:12;17.70;99.90
41722;DHT22;27407;24.142;-110.310;2024-03-22T09:45:45;17.70;99.90
41722;DHT22;27407;24.142;-110.310;2024-03-22T09:48:12;17.70;99.90
41722;DHT22;27407;24.142;-110.310;2024-03-22T09:50:40;17.60;99.90
41722;DHT22;27407;24.142;-110.310;2024-03-22T09:53:08;17.60;99.90
41722;DHT22;27407;24.142;-110.310;2024-03-22T09:55:39;17.60;99.90
41722;DHT22;27407;24.142;-110.310;2024-03-22T09:58:10;17.50;99.90
41722;DHT22;27407;24.142;-110.310;2024-03-22T10:00:36;17.50;99.90
41722;DHT22;27407;24.142;-110.310;2024-03-22T10:03:04;17.50;99.90
41722;DHT22;27407;24.142;-110.310;2024-03-22T10:05:31;17.40;99.90
41722;DHT22;27407;24.142;-110.310;2024-03-22T10:07:58;17.40;99.90
41722;DHT22;27407;24.142;-110.310;2024-03-22T10:10:25;17.40;99.90
41722;DHT22;27407;24.142;-110.310;2024-03-22T10:12:52;17.40;99.90
41722;DHT22;27407;24.142;-110.310;2024-03-22T10:15:19;17.30;99.90
41722;DHT22;27407;24.142;-110.310;2024-03-22T10:17:46;17.30;99.90
41722;DHT22;27407;24.142;-110.310;2024-03-22T10:20:16;17.30;99.90
41722;DHT22;27407;24.142;-110.310;2024-03-22T10:22:43;17.30;99.90
41722;DHT22;27407;24.142;-110.310;2024-03-22T10:25:10;17.30;99.90
41722;DHT22;27407;24.142;-110.310;2024-03-22T10:27:40;17.30;99.90
41722;DHT22;27407;24.142;-110.310;2024-03-22T10:30:11;17.20;99.90
41722;DHT22;27407;24.142;-110.310;2024-03-22T10:32:38;17.20;99.90
41722;DHT22;27407;24.142;-110.310;2024-03-22T10:35:06;17.10;99.90
41722;DHT22;27407;24.142;-110.310;2024-03-22T10:37:36;17.00;99.90
41722;DHT22;27407;24.142;-110.310;2024-03-22T10:40:03;16.80;99.90
41722;DHT22;27407;24.142;-110.310;2024-03-22T10:42:37;16.80;99.90
41722;DHT22;27407;24.142;-110.310;2024-03-22T10:45:04;16.80;99.90
41722;DHT22;27407;24.142;-110.310;2024-03-22T10:47:32;16.90;99.90
41722;DHT22;27407;24.142;-110.310;2024-03-22T10:50:06;16.90;99.90
41722;DHT22;27407;24.142;-110.310;2024-03-22T10:52:38;17.00;99.90
41722;DHT22;27407;24.142;-110.310;2024-03-22T10:55:13;16.90;99.90
41722;DHT22;27407;24.142;-110.310;2024-03-22T10:57:43;16.90;99.90
41722;DHT22;27407;24.142;-110.310;2024-03-22T11:00:11;16.80;99.90
41722;DHT22;27407;24.142;-110.310;2024-03-22T11:02:38;16.70;99.90
41722;DHT22;27407;24.142;-110.310;2024-03-22T11:05:05;16.50;99.90
41722;DHT22;27407;24.142;-110.310;2024-03-22T11:07:33;16.40;99.90
41722;DHT22;27407;24.142;-110.310;2024-03-22T11:10:02;16.40;99.90
41722;DHT22;27407;24.142;-110.310;2024-03-22T11:12:32;16.30;99.90
41722;DHT22;27407;24.142;-110.310;2024-03-22T11:14:59;16.40;99.90
41722;DHT22;27407;24.142;-110.310;2024-03-22T11:17:26;16.40;99.90
41722;DHT22;27407;24.142;-110.310;2024-03-22T11:19:53;16.50;99.90
41722;DHT22;27407;24.142;-110.310;2024-03-22T11:22:19;16.50;99.90
41722;DHT22;27407;24.142;-110.310;2024-03-22T11:24:46;16.50;99.90
41722;DHT22;27407;24.142;-110.310;2024-03-22T11:27:12;16.50;99.90
41722;DHT22;27407;24.142;-110.310;2024-03-22T11:29:40;16.50;99.90
41722;DHT22;27407;24.142;-110.310;2024-03-22T11:32:08;16.50;99.90
41722;DHT22;27407;24.142;-110.310;2024-03-22T11:34:36;16.50;99.90
41722;DHT22;27407;24.142;-110.310;2024-03-22T11:37:03;16.50;99.90
41722;DHT22;27407;24.142;-110.310;2024-03-22T11:39:30;16.40;99.90
41722;DHT22;27407;24.142;-110.310;2024-03-22T11:41:57;16.40;99.90
41722;DHT22;27407;24.142;-110.310;2024-03-22T11:44:24;16.40;99.90
41722;DHT22;27407;24.142;-110.310;2024-03-22T11:46:52;16.40;99.90
41722;DHT22;27407;24.142;-110.310;2024-03-22T11:49:19;16.40;99.90
41722;DHT22;27407;24.142;-110.310;2024-03-22T11:51:45;16.30;99.90
41722;DHT22;27407;24.142;-110.310;2024-03-22T11:54:12;16.30;99.90
41722;DHT22;27407;24.142;-110.310;2024-03-22T11:56:40;16.30;99.90
41722;DHT22;27407;24.142;-110.310;2024-03-22T11:59:07;16.20;99.90
41722;DHT22;27407;24.142;-110.310;2024-03-22T12:01:34;16.20;99.90
41722;DHT22;27407;24.142;-110.310;2024-03-22T12:04:00;16.20;99.90
41722;DHT22;27407;24.142;-110.310;2024-03-22T12:06:27;16.20;99.90
41722;DHT22;27407;24.142;-110.310;2024-03-22T12:08:54;16.10;99.90
41722;DHT22;27407;24.142;-110.310;2024-03-22T12:11:20;16.00;99.90
41722;DHT22;27407;24.142;-110.310;2024-03-22T12:13:47;16.00;99.90
41722;DHT22;27407;24.142;-110.310;2024-03-22T12:16:14;16.00;99.90
41722;DHT22;27407;24.142;-110.310;2024-03-22T12:18:40;16.00;99.90
41722;DHT22;27407;24.142;-110.310;2024-03-22T12:21:07;16.10;99.90
41722;DHT22;27407;24.142;-110.310;2024-03-22T12:23:34;16.00;99.90
41722;DHT22;27407;24.142;-110.310;2024-03-22T12:26:00;16.00;99.90
41722;DHT22;27407;24.142;-110.310;2024-03-22T12:28:27;16.00;99.90
41722;DHT22;27407;24.142;-110.310;2024-03-22T12:30:54;16.00;99.90
41722;DHT22;27407;24.142;-110.310;2024-03-22T12:33:20;15.90;99.90
41722;DHT22;27407;24.142;-110.310;2024-03-22T12:35:47;15.90;99.90
41722;DHT22;27407;24.142;-110.310;2024-03-22T12:38:14;15.90;99.90
41722;DHT22;27407;24.142;-110.310;2024-03-22T12:40:41;15.90;99.90
41722;DHT22;27407;24.142;-110.310;2024-03-22T12:43:09;15.90;99.90
41722;DHT22;27407;24.142;-110.310;2024-03-22T12:45:37;15.90;99.90
41722;DHT22;27407;24.142;-110.310;2024-03-22T12:48:04;15.90;99.90
41722;DHT22;27407;24.142;-110.310;2024-03-22T12:50:32;16.00;99.90
41722;DHT22;27407;24.142;-110.310;2024-03-22T12:52:59;15.90;99.90
41722;DHT22;27407;24.142;-110.310;2024-03-22T12:55:26;15.90;99.90
41722;DHT22;27407;24.142;-110.310;2024-03-22T12:57:54;15.90;99.90
41722;DHT22;27407;24.142;-110.310;2024-03-22T13:00:21;15.80;99.90
41722;DHT22;27407;24.142;-110.310;2024-03-22T13:02:48;15.80;99.90
41722;DHT22;27407;24.142;-110.310;2024-03-22T13:05:14;15.80;99.90
41722;DHT22;27407;24.142;-110.310;2024-03-22T13:07:41;15.80;99.90
41722;DHT22;27407;24.142;-110.310;2024-03-22T13:10:08;15.70;99.90
41722;DHT22;27407;24.142;-110.310;2024-03-22T13:12:35;15.70;99.90
41722;DHT22;27407;24.142;-110.310;2024-03-22T13:15:02;15.70;99.90
41722;DHT22;27407;24.142;-110.310;2024-03-22T13:17:29;15.70;99.90
41722;DHT22;27407;24.142;-110.310;2024-03-22T13:19:56;15.70;99.90
41722;DHT22;27407;24.142;-110.310;2024-03-22T13:22:22;15.70;99.90
41722;DHT22;27407;24.142;-110.310;2024-03-22T13:24:49;15.70;99.90
41722;DHT22;27407;24.142;-110.310;2024-03-22T13:27:16;15.70;99.90
41722;DHT22;27407;24.142;-110.310;2024-03-22T13:29:44;15.70;99.90
41722;DHT22;27407;24.142;-110.310;2024-03-22T13:32:10;15.70;99.90
41722;DHT22;27407;24.142;-110.310;2024-03-22T13:34:37;15.70;99.90
41722;DHT22;27407;24.142;-110.310;2024-03-22T13:37:04;15.70;99.90
41722;DHT22;27407;24.142;-110.310;2024-03-22T13:39:32;15.70;99.90
41722;DHT22;27407;24.142;-110.310;2024-03-22T13:41:59;15.80;99.90
41722;DHT22;27407;24.142;-110.310;2024-03-22T13:44:25;15.80;99.90
41722;DHT22;27407;24.142;-110.310;2024-03-22T13:46:53;15.80;99.90
41722;DHT22;27407;24.142;-110.310;2024-03-22T13:49:20;15.90;99.90
41722;DHT22;27407;24.142;-110.310;2024-03-22T13:51:47;15.90;99.90
41722;DHT22;27407;24.142;-110.310;2024-03-22T13:54:14;15.90;99.90
41722;DHT22;27407;24.142;-110.310;2024-03-22T13:56:42;15.90;99.90
41722;DHT22;27407;24.142;-110.310;2024-03-22T13:59:09;16.00;99.90
41722;DHT22;27407;24.142;-110.310;2024-03-22T14:01:37;16.10;99.90
41722;DHT22;27407;24.142;-110.310;2024-03-22T14:04:04;16.20;99.90
41722;DHT22;27407;24.142;-110.310;2024-03-22T14:06:32;16.30;99.90
41722;DHT22;27407;24.142;-110.310;2024-03-22T14:09:02;16.30;99.90
41722;DHT22;27407;24.142;-110.310;2024-03-22T14:11:31;16.30;99.90
41722;DHT22;27407;24.142;-110.310;2024-03-22T14:13:58;16.40;99.90
41722;DHT22;27407;24.142;-110.310;2024-03-22T14:16:25;16.50;99.90
41722;DHT22;27407;24.142;-110.310;2024-03-22T14:18:52;16.60;99.90
41722;DHT22;27407;24.142;-110.310;2024-03-22T14:21:19;16.70;99.90
41722;DHT22;27407;24.142;-110.310;2024-03-22T14:23:47;16.90;99.90
41722;DHT22;27407;24.142;-110.310;2024-03-22T14:26:15;17.00;99.90
41722;DHT22;27407;24.142;-110.310;2024-03-22T14:28:42;17.20;99.90
41722;DHT22;27407;24.142;-110.310;2024-03-22T14:31:09;17.30;99.90
41722;DHT22;27407;24.142;-110.310;2024-03-22T14:33:39;17.50;99.90
41722;DHT22;27407;24.142;-110.310;2024-03-22T14:36:07;17.60;99.90
41722;DHT22;27407;24.142;-110.310;2024-03-22T14:38:35;17.70;99.90
41722;DHT22;27407;24.142;-110.310;2024-03-22T14:41:02;17.90;99.90
41722;DHT22;27407;24.142;-110.310;2024-03-22T14:43:29;18.00;99.90
41722;DHT22;27407;24.142;-110.310;2024-03-22T14:46:02;18.20;99.90
41722;DHT22;27407;24.142;-110.310;2024-03-22T14:48:29;18.30;99.90